createdAt,value
2019-05-10T00:43:54.719Z,96875.00
2019-05-10T00:47:55.769Z,96876.00
2019-05-10T00:51:56.685Z,96876.00
2019-05-10T00:55:57.694Z,96893.00
2019-05-10T00:59:58.694Z,96890.00
2019-05-10T01:03:59.722Z,96885.00
2019-05-10T01:08:00.737Z,96885.00
2019-05-10T01:12:01.654Z,96889.00
2019-05-10T01:16:02.698Z,96886.00
2019-05-10T01:20:07.421Z,96886.00
2019-05-10T01:24:08.369Z,96892.00
2019-05-10T01:28:09.670Z,96898.00
2019-05-10T01:32:10.603Z,96903.00
2019-05-10T01:36:11.734Z,96896.00
2019-05-10T01:40:13.012Z,96911.00
2019-05-10T01:44:14.658Z,96913.00
2019-05-10T01:48:16.136Z,96920.00
2019-05-10T01:52:17.159Z,96923.00
2019-05-10T01:56:18.095Z,96929.00
2019-05-10T02:00:19.206Z,96936.00
2019-05-10T02:04:20.495Z,96939.00
2019-05-10T02:08:21.610Z,96930.00
2019-05-10T02:12:22.713Z,96933.00
2019-05-10T02:16:23.644Z,96935.00
2019-05-10T02:20:24.688Z,96939.00
2019-05-10T02:24:25.840Z,96944.00
2019-05-10T02:28:26.898Z,96947.00
2019-05-10T02:32:27.947Z,96961.00
2019-05-10T02:36:29.118Z,96956.00
2019-05-10T02:40:30.139Z,96973.00
2019-05-10T02:44:31.150Z,96969.00
2019-05-10T02:48:32.258Z,96968.00
2019-05-10T02:52:33.272Z,96976.00
2019-05-10T02:56:35.185Z,96980.00
2019-05-10T03:00:39.546Z,96978.00
2019-05-10T03:04:44.125Z,96966.00
2019-05-10T03:08:48.150Z,96972.00
2019-05-10T03:12:50.812Z,96975.00
2019-05-10T03:16:52.020Z,96977.00
2019-05-10T03:20:57.079Z,96985.00
2019-05-10T03:24:57.963Z,96990.00
2019-05-10T03:28:59.059Z,96988.00
2019-05-10T03:33:00.342Z,96992.00
2019-05-10T03:37:01.917Z,96991.00
2019-05-10T03:41:03.093Z,96987.00
2019-05-10T03:45:06.371Z,96996.00
2019-05-10T03:49:07.452Z,96991.00
2019-05-10T03:53:08.540Z,97009.00
2019-05-10T03:57:13.791Z,97005.00
2019-05-10T04:01:12.918Z,97005.00
2019-05-10T04:05:15.719Z,97009.00
2019-05-10T04:09:16.712Z,97018.00
2019-05-10T04:13:17.658Z,97013.00
2019-05-10T04:17:18.678Z,97021.00
2019-05-10T04:21:19.708Z,97043.00
2019-05-10T04:25:20.655Z,97036.00
2019-05-10T04:29:21.749Z,97042.00
2019-05-10T04:33:22.905Z,97039.00
2019-05-10T04:37:23.924Z,97034.00
2019-05-10T04:41:24.869Z,97041.00
2019-05-10T04:45:25.973Z,97048.00
2019-05-10T04:49:27.197Z,97048.00
2019-05-10T04:53:28.479Z,97044.00
2019-05-10T04:57:29.691Z,97046.00
2019-05-10T05:01:30.696Z,97056.00
2019-05-10T05:05:31.843Z,97058.00
2019-05-10T05:09:33.035Z,97064.00
2019-05-10T05:13:34.045Z,97066.00
2019-05-10T05:17:35.201Z,97076.00
2019-05-10T05:21:36.297Z,97078.00
2019-05-10T05:25:40.392Z,97082.00
2019-05-10T05:29:40.403Z,97088.00
2019-05-10T05:33:41.440Z,97088.00
2019-05-10T05:37:42.645Z,97090.00
2019-05-10T05:41:49.141Z,97103.00
2019-05-10T05:45:46.610Z,97105.00
2019-05-10T05:49:47.910Z,97105.00
2019-05-10T05:53:49.047Z,97105.00
2019-05-10T05:57:50.126Z,97099.00
2019-05-10T06:01:51.227Z,97106.00
2019-05-10T06:05:56.147Z,97105.00
2019-05-10T06:09:57.158Z,97115.00
2019-05-10T06:14:03.590Z,97118.00
2019-05-10T06:18:03.653Z,97115.00
2019-05-10T06:22:06.966Z,97113.00
2019-05-10T06:26:20.987Z,97122.00
2019-05-10T06:30:11.360Z,97119.00
2019-05-10T06:34:12.462Z,97130.00
2019-05-10T06:38:13.356Z,97134.00
2019-05-10T06:42:14.227Z,97134.00
2019-05-10T06:46:15.219Z,97130.00
2019-05-10T06:50:16.622Z,97133.00
2019-05-10T06:54:17.619Z,97125.00
2019-05-10T06:58:18.488Z,97132.00
2019-05-10T07:02:19.993Z,97139.00
2019-05-10T07:06:22.229Z,97140.00
2019-05-10T07:10:25.496Z,97150.00
2019-05-10T07:14:27.368Z,97149.00
2019-05-10T07:18:28.421Z,97155.00
2019-05-10T07:22:29.378Z,97160.00
2019-05-10T07:26:30.287Z,97163.00
2019-05-10T07:30:33.985Z,97158.00
2019-05-10T07:34:34.835Z,97171.00
2019-05-10T07:38:35.739Z,97163.00
2019-05-10T07:42:39.878Z,97176.00
2019-05-10T07:46:40.201Z,97175.00
2019-05-10T07:50:48.706Z,97183.00
2019-05-10T07:54:47.600Z,97183.00
2019-05-10T07:58:47.819Z,97186.00
2019-05-10T08:02:55.030Z,97193.00
2019-05-10T08:06:52.189Z,97190.00
2019-05-10T08:10:53.348Z,97194.00
2019-05-10T08:14:54.221Z,97204.00
2019-05-10T08:18:55.574Z,97202.00
2019-05-10T08:22:57.869Z,97217.00
2019-05-10T08:27:08.117Z,97224.00
2019-05-10T08:31:02.504Z,97199.00
2019-05-10T08:35:05.693Z,97233.00
2019-05-10T08:39:10.915Z,97213.00
2019-05-10T08:43:16.118Z,97223.00
2019-05-10T08:47:22.490Z,97223.00
2019-05-10T08:51:16.901Z,97225.00
2019-05-10T08:55:17.765Z,97228.00
2019-05-10T08:59:23.710Z,97243.00
2019-05-10T09:03:22.775Z,97247.00
2019-05-10T09:07:23.889Z,97252.00
2019-05-10T09:11:24.798Z,97247.00
2019-05-10T09:15:25.850Z,97248.00
2019-05-10T09:19:36.004Z,97253.00
2019-05-10T09:23:29.622Z,97254.00
2019-05-10T09:27:31.301Z,97260.00
2019-05-10T09:31:33.486Z,97264.00
2019-05-10T09:35:38.881Z,97263.00
2019-05-10T09:39:37.517Z,97273.00
2019-05-10T09:43:40.441Z,97275.00
2019-05-10T09:47:43.341Z,97272.00
2019-05-10T09:51:44.359Z,97279.00
2019-05-10T09:55:50.481Z,97292.00
2019-05-10T09:59:48.168Z,97293.00
2019-05-10T10:03:49.142Z,97291.00
2019-05-10T10:07:50.023Z,97293.00
2019-05-10T10:11:57.839Z,97293.00
2019-05-10T10:15:53.821Z,97304.00
2019-05-10T10:19:54.809Z,97301.00
2019-05-10T10:24:00.009Z,97301.00
2019-05-10T10:27:58.569Z,97307.00
2019-05-10T10:31:59.454Z,97308.00
2019-05-10T10:36:04.720Z,97308.00
2019-05-10T10:40:06.043Z,97301.00
2019-05-10T10:44:08.363Z,97304.00
2019-05-10T10:48:12.789Z,97302.00
2019-05-10T10:52:13.584Z,97302.00
2019-05-10T10:56:14.604Z,97305.00
2019-05-10T11:00:23.227Z,97295.00
2019-05-10T11:04:22.154Z,97310.00
2019-05-10T11:08:23.173Z,97306.00
2019-05-10T11:12:25.665Z,97309.00
2019-05-10T11:16:26.655Z,97301.00
2019-05-10T11:20:27.759Z,97299.00
2019-05-10T11:24:30.808Z,97303.00
2019-05-10T11:28:38.778Z,97299.00
2019-05-10T11:32:34.636Z,97298.00
2019-05-10T11:36:35.629Z,97291.00
2019-05-10T11:40:36.580Z,97293.00
2019-05-10T11:44:41.414Z,97287.00
2019-05-10T11:48:42.234Z,97286.00
2019-05-10T11:52:43.119Z,97291.00
2019-05-10T11:56:44.128Z,97297.00
2019-05-10T12:00:45.184Z,97294.00
2019-05-10T12:04:46.206Z,97294.00
2019-05-10T12:08:47.322Z,97293.00
2019-05-10T12:16:54.660Z,97304.00
2019-05-10T12:21:04.112Z,97299.00
2019-05-10T12:25:20.554Z,97297.00
2019-05-10T12:26:27.645Z,97304.00
2019-05-10T12:29:11.528Z,97310.00
2019-05-10T12:33:08.686Z,97303.00
2019-05-10T12:37:08.305Z,97301.00
2019-05-10T12:41:08.701Z,97304.00
2019-05-10T12:45:09.964Z,97310.00
2019-05-10T12:49:11.943Z,97313.00
2019-05-10T12:53:18.207Z,97321.00
2019-05-10T12:57:16.324Z,97320.00
2019-05-10T13:01:18.134Z,97312.00
2019-05-10T13:05:19.144Z,97323.00
2019-05-10T13:09:35.942Z,97334.00
2019-05-10T13:13:29.245Z,97327.00
2019-05-10T13:17:26.437Z,97331.00
2019-05-10T13:21:30.304Z,97331.00
2019-05-10T13:25:30.770Z,97338.00
2019-05-10T13:29:32.814Z,97339.00
2019-05-10T13:33:40.748Z,97332.00
2019-05-10T13:37:36.660Z,97344.00
2019-05-10T13:41:37.645Z,97349.00
2019-05-10T13:45:39.633Z,97339.00
2019-05-10T13:49:40.714Z,97335.00
2019-05-10T13:53:41.612Z,97341.00
2019-05-10T13:57:42.633Z,97329.00
2019-05-10T14:01:44.150Z,97349.00
2019-05-10T14:05:46.383Z,97347.00
2019-05-10T14:09:47.602Z,97345.00
2019-05-10T14:13:48.467Z,97356.00
2019-05-10T14:17:49.361Z,97355.00
2019-05-10T14:21:50.252Z,97357.00
2019-05-10T14:25:51.223Z,97349.00
2019-05-10T14:29:52.236Z,97355.00
2019-05-10T14:34:14.579Z,97366.00
2019-05-10T14:38:07.317Z,97356.00
2019-05-10T14:41:59.252Z,97361.00
2019-05-10T14:46:00.174Z,97367.00
2019-05-10T14:50:01.234Z,97366.00
2019-05-10T14:54:06.795Z,97361.00
2019-05-10T14:58:05.121Z,97358.00
2019-05-10T15:02:06.007Z,97370.00
2019-05-10T15:06:07.092Z,97359.00
2019-05-10T15:10:08.512Z,97365.00
2019-05-10T15:14:09.543Z,97361.00
2019-05-10T15:18:10.591Z,97360.00
2019-05-10T15:22:11.516Z,97362.00
2019-05-10T15:26:12.605Z,97357.00
2019-05-10T15:30:13.988Z,97361.00
2019-05-10T15:34:15.184Z,97354.00
2019-05-10T15:38:16.041Z,97368.00
2019-05-10T15:42:17.042Z,97368.00
2019-05-10T15:46:18.153Z,97374.00
2019-05-10T15:50:19.237Z,97369.00
2019-05-10T15:54:20.301Z,97369.00
2019-05-10T15:58:21.550Z,97373.00
2019-05-10T16:02:22.538Z,97378.00
2019-05-10T16:06:23.673Z,97381.00
2019-05-10T16:10:28.511Z,97384.00
2019-05-10T16:14:32.783Z,97384.00
2019-05-10T16:18:33.347Z,97376.00
2019-05-10T16:22:33.328Z,97383.00
2019-05-10T16:26:34.317Z,97380.00
2019-05-10T16:30:36.535Z,97372.00
2019-05-10T16:34:37.872Z,97373.00
2019-05-10T16:38:38.858Z,97371.00
2019-05-10T16:42:40.020Z,97372.00
2019-05-10T16:46:41.042Z,97370.00
2019-05-10T16:50:41.958Z,97372.00
2019-05-10T16:54:43.006Z,97375.00
2019-05-10T16:58:47.607Z,97377.00
2019-05-10T17:02:46.862Z,97381.00
2019-05-10T17:06:48.591Z,97384.00
2019-05-10T17:10:49.536Z,97382.00
2019-05-10T17:14:55.860Z,97387.00
2019-05-10T17:18:55.300Z,97390.00
2019-05-10T17:23:07.972Z,97381.00
2019-05-10T17:26:58.982Z,97378.00
2019-05-10T17:31:06.991Z,97385.00
2019-05-10T17:35:06.690Z,97371.00
2019-05-10T17:39:07.871Z,97358.00
2019-05-10T17:43:14.176Z,97363.00
2019-05-10T17:47:13.007Z,97368.00
2019-05-10T17:51:14.103Z,97375.00
2019-05-10T17:55:16.679Z,97363.00
2019-05-10T17:59:18.273Z,97359.00
2019-05-10T18:03:19.267Z,97354.00
2019-05-10T18:07:20.596Z,97350.00
2019-05-10T18:11:21.646Z,97355.00
2019-05-10T18:15:22.642Z,97352.00
2019-05-10T18:19:26.466Z,97365.00
2019-05-10T18:23:26.553Z,97369.00
2019-05-10T18:27:27.578Z,97369.00
2019-05-10T18:31:28.466Z,97379.00
2019-05-10T18:35:29.475Z,97380.00
2019-05-10T18:39:30.385Z,97375.00
2019-05-10T18:43:35.326Z,97383.00
2019-05-10T18:47:34.323Z,97412.00
2019-05-10T18:51:35.312Z,97418.00
2019-05-10T18:55:36.349Z,97408.00
2019-05-10T18:59:39.784Z,97412.00
2019-05-10T19:03:40.160Z,97412.00
2019-05-10T19:07:41.107Z,97418.00
2019-05-10T19:11:42.202Z,97420.00
2019-05-10T19:15:46.217Z,97433.00
2019-05-10T19:19:46.093Z,97425.00
2019-05-10T19:23:52.261Z,97427.00
2019-05-10T19:27:50.882Z,97436.00
2019-05-10T19:31:52.246Z,97436.00
2019-05-10T19:35:53.313Z,97441.00
2019-05-10T19:39:54.225Z,97435.00
2019-05-10T19:43:56.001Z,97442.00
2019-05-10T19:47:58.350Z,97452.00
2019-05-10T19:51:59.493Z,97458.00
2019-05-10T19:56:03.834Z,97466.00
2019-05-10T20:00:06.676Z,97461.00
2019-05-10T20:04:09.455Z,97465.00
2019-05-10T20:08:10.674Z,97457.00
2019-05-10T20:12:11.771Z,97468.00
2019-05-10T20:16:12.715Z,97475.00
2019-05-10T20:20:13.979Z,97466.00
2019-05-10T20:24:14.945Z,97449.00
2019-05-10T20:28:16.347Z,97441.00
2019-05-10T20:32:17.390Z,97449.00
2019-05-10T20:36:18.514Z,97451.00
2019-05-10T20:40:19.691Z,97437.00
2019-05-10T20:44:20.875Z,97442.00
2019-05-10T20:48:22.212Z,97448.00
2019-05-10T20:52:23.586Z,97444.00
2019-05-10T20:56:25.315Z,97441.00
2019-05-10T21:00:26.490Z,97457.00
2019-05-10T21:04:27.444Z,97461.00
2019-05-10T21:08:29.057Z,97465.00
2019-05-10T21:12:31.931Z,97465.00
2019-05-10T21:16:33.151Z,97475.00
2019-05-10T21:20:34.094Z,97472.00
2019-05-10T21:24:35.080Z,97463.00
2019-05-10T21:28:35.973Z,97462.00
2019-05-10T21:32:36.831Z,97450.00
2019-05-10T21:36:37.880Z,97444.00
2019-05-10T21:40:39.003Z,97428.00
2019-05-10T21:44:42.099Z,97419.00
2019-05-10T21:48:43.121Z,97423.00
2019-05-10T21:52:44.084Z,97423.00
2019-05-10T21:56:45.074Z,97420.00
2019-05-10T22:00:49.454Z,97406.00
2019-05-10T22:04:50.584Z,97391.00
2019-05-10T22:08:51.703Z,97388.00
2019-05-10T22:12:52.574Z,97388.00
2019-05-10T22:16:53.911Z,97387.00
2019-05-10T22:20:54.886Z,97384.00
2019-05-10T22:24:55.777Z,97369.00
2019-05-10T22:28:57.152Z,97351.00
2019-05-10T22:32:58.169Z,97373.00
2019-05-10T22:36:59.052Z,97385.00
2019-05-10T22:40:59.986Z,97377.00
2019-05-10T22:45:00.864Z,97375.00
2019-05-10T22:49:01.995Z,97371.00
2019-05-10T22:53:03.079Z,97350.00
2019-05-10T22:57:04.078Z,97351.00
2019-05-10T23:01:05.074Z,97348.00
2019-05-10T23:05:06.208Z,97361.00
2019-05-10T23:09:23.477Z,97355.00
2019-05-10T23:13:10.946Z,97350.00
2019-05-10T23:17:11.833Z,97337.00
2019-05-10T23:21:12.747Z,97340.00
2019-05-10T23:25:13.628Z,97329.00
2019-05-10T23:29:14.617Z,97323.00
2019-05-10T23:33:15.877Z,97324.00
2019-05-10T23:37:16.769Z,97324.00
2019-05-10T23:41:17.622Z,97318.00
2019-05-10T23:45:18.534Z,97309.00
2019-05-10T23:49:19.514Z,97316.00
2019-05-10T23:53:21.039Z,97299.00
2019-05-10T23:57:22.042Z,97279.00
